sensor_id;sensor_type;location;lat;lon;timestamp;temperature;humidity
52555;DHT22;38455;52.710;6.502;2023-09-30T00:00:57;11.60;99.90
52555;DHT22;38455;52.710;6.502;2023-09-30T00:03:23;11.60;99.90
52555;DHT22;38455;52.710;6.502;2023-09-30T00:05:49;11.60;99.90
52555;DHT22;38455;52.710;6.502;2023-09-30T00:08:14;11.60;99.90
52555;DHT22;38455;52.710;6.502;2023-09-30T00:10:40;11.60;99.90
52555;DHT22;38455;52.710;6.502;2023-09-30T00:13:06;11.60;99.90
52555;DHT22;38455;52.710;6.502;2023-09-30T00:15:34;11.60;99.90
52555;DHT22;38455;52.710;6.502;2023-09-30T00:18:00;11.60;99.90
52555;DHT22;38455;52.710;6.502;2023-09-30T00:20:27;11.60;99.90
52555;DHT22;38455;52.710;6.502;2023-09-30T00:22:53;11.60;99.90
52555;DHT22;38455;52.710;6.502;2023-09-30T00:25:19;11.60;99.90
52555;DHT22;38455;52.710;6.502;2023-09-30T00:27:47;11.60;99.90
52555;DHT22;38455;52.710;6.502;2023-09-30T00:30:13;11.60;99.90
52555;DHT22;38455;52.710;6.502;2023-09-30T00:32:39;11.60;99.90
52555;DHT22;38455;52.710;6.502;2023-09-30T00:35:05;11.60;99.90
52555;DHT22;38455;52.710;6.502;2023-09-30T00:37:39;11.60;99.90
52555;DHT22;38455;52.710;6.502;2023-09-30T00:40:06;11.60;99.90
52555;DHT22;38455;52.710;6.502;2023-09-30T00:42:32;11.50;99.90
52555;DHT22;38455;52.710;6.502;2023-09-30T00:44:58;11.60;99.90
52555;DHT22;38455;52.710;6.502;2023-09-30T00:47:24;11.60;99.90
52555;DHT22;38455;52.710;6.502;2023-09-30T00:49:51;11.60;99.90
52555;DHT22;38455;52.710;6.502;2023-09-30T00:52:17;11.60;99.90
52555;DHT22;38455;52.710;6.502;2023-09-30T00:54:43;11.60;99.90
52555;DHT22;38455;52.710;6.502;2023-09-30T00:57:10;11.60;99.90
52555;DHT22;38455;52.710;6.502;2023-09-30T00:59:37;11.60;99.90
52555;DHT22;38455;52.710;6.502;2023-09-30T01:02:03;11.60;99.90
52555;DHT22;38455;52.710;6.502;2023-09-30T01:04:31;11.60;99.90
52555;DHT22;38455;52.710;6.502;2023-09-30T01:06:57;11.60;99.90
52555;DHT22;38455;52.710;6.502;2023-09-30T01:09:23;11.60;99.90
52555;DHT22;38455;52.710;6.502;2023-09-30T01:11:49;11.60;99.90
52555;DHT22;38455;52.710;6.502;2023-09-30T01:14:28;11.60;99.90
52555;DHT22;38455;52.710;6.502;2023-09-30T01:16:55;11.60;99.90
52555;DHT22;38455;52.710;6.502;2023-09-30T01:19:21;11.60;99.90
52555;DHT22;38455;52.710;6.502;2023-09-30T01:21:55;11.60;99.90
52555;DHT22;38455;52.710;6.502;2023-09-30T01:24:29;11.60;99.90
52555;DHT22;38455;52.710;6.502;2023-09-30T01:26:55;11.60;99.90
52555;DHT22;38455;52.710;6.502;2023-09-30T01:29:21;11.60;99.90
52555;DHT22;38455;52.710;6.502;2023-09-30T01:31:48;11.60;99.90
52555;DHT22;38455;52.710;6.502;2023-09-30T01:34:16;11.60;99.90
52555;DHT22;38455;52.710;6.502;2023-09-30T01:36:42;11.60;99.90
52555;DHT22;38455;52.710;6.502;2023-09-30T01:39:09;11.60;99.90
52555;DHT22;38455;52.710;6.502;2023-09-30T01:41:40;11.60;99.90
52555;DHT22;38455;52.710;6.502;2023-09-30T01:44:06;11.70;99.90
52555;DHT22;38455;52.710;6.502;2023-09-30T01:46:32;11.60;99.90
52555;DHT22;38455;52.710;6.502;2023-09-30T01:48:58;11.70;99.90
52555;DHT22;38455;52.710;6.502;2023-09-30T01:51:23;11.70;99.90
52555;DHT22;38455;52.710;6.502;2023-09-30T01:53:49;11.70;99.90
52555;DHT22;38455;52.710;6.502;2023-09-30T01:56:15;11.60;99.90
52555;DHT22;38455;52.710;6.502;2023-09-30T01:58:41;11.60;99.90
52555;DHT22;38455;52.710;6.502;2023-09-30T02:01:07;11.70;99.90
52555;DHT22;38455;52.710;6.502;2023-09-30T02:03:33;11.60;99.90
52555;DHT22;38455;52.710;6.502;2023-09-30T02:05:59;11.60;99.90
52555;DHT22;38455;52.710;6.502;2023-09-30T02:08:25;11.70;99.90
52555;DHT22;38455;52.710;6.502;2023-09-30T02:10:51;11.70;99.90
52555;DHT22;38455;52.710;6.502;2023-09-30T02:13:18;11.70;99.90
52555;DHT22;38455;52.710;6.502;2023-09-30T02:15:43;11.70;99.90
52555;DHT22;38455;52.710;6.502;2023-09-30T02:18:10;11.70;99.90
52555;DHT22;38455;52.710;6.502;2023-09-30T02:20:36;11.70;99.90
52555;DHT22;38455;52.710;6.502;2023-09-30T02:23:11;11.60;99.90
52555;DHT22;38455;52.710;6.502;2023-09-30T02:25:37;11.70;99.90
52555;DHT22;38455;52.710;6.502;2023-09-30T02:28:03;11.60;99.90
52555;DHT22;38455;52.710;6.502;2023-09-30T02:30:30;11.60;99.90
52555;DHT22;38455;52.710;6.502;2023-09-30T02:32:56;11.60;99.90
52555;DHT22;38455;52.710;6.502;2023-09-30T02:35:22;11.60;99.90
52555;DHT22;38455;52.710;6.502;2023-09-30T02:37:48;11.60;99.90
52555;DHT22;38455;52.710;6.502;2023-09-30T02:40:15;11.60;99.90
52555;DHT22;38455;52.710;6.502;2023-09-30T02:42:42;11.50;99.90
52555;DHT22;38455;52.710;6.502;2023-09-30T02:45:10;11.50;99.90
52555;DHT22;38455;52.710;6.502;2023-09-30T02:47:37;11.50;99.90
52555;DHT22;38455;52.710;6.502;2023-09-30T02:50:04;11.50;99.90
52555;DHT22;38455;52.710;6.502;2023-09-30T02:52:30;11.50;99.90
52555;DHT22;38455;52.710;6.502;2023-09-30T02:54:57;11.50;99.90
52555;DHT22;38455;52.710;6.502;2023-09-30T02:57:24;11.50;99.90
52555;DHT22;38455;52.710;6.502;2023-09-30T02:59:49;11.50;99.90
52555;DHT22;38455;52.710;6.502;2023-09-30T03:02:17;11.50;99.90
52555;DHT22;38455;52.710;6.502;2023-09-30T03:04:43;11.50;99.90
52555;DHT22;38455;52.710;6.502;2023-09-30T03:07:10;11.40;99.90
52555;DHT22;38455;52.710;6.502;2023-09-30T03:09:36;11.40;99.90
52555;DHT22;38455;52.710;6.502;2023-09-30T03:12:02;11.40;99.90
52555;DHT22;38455;52.710;6.502;2023-09-30T03:14:30;11.40;99.90
52555;DHT22;38455;52.710;6.502;2023-09-30T03:17:00;11.40;99.90
52555;DHT22;38455;52.710;6.502;2023-09-30T03:19:25;11.40;99.90
52555;DHT22;38455;52.710;6.502;2023-09-30T03:21:51;11.40;99.90
52555;DHT22;38455;52.710;6.502;2023-09-30T03:24:17;11.30;99.90
52555;DHT22;38455;52.710;6.502;2023-09-30T03:26:43;11.40;99.90
52555;DHT22;38455;52.710;6.502;2023-09-30T03:29:09;11.40;99.90
52555;DHT22;38455;52.710;6.502;2023-09-30T03:31:35;11.30;99.90
52555;DHT22;38455;52.710;6.502;2023-09-30T03:34:02;11.40;99.90
52555;DHT22;38455;52.710;6.502;2023-09-30T03:36:30;11.40;99.90
52555;DHT22;38455;52.710;6.502;2023-09-30T03:38:56;11.30;99.90
52555;DHT22;38455;52.710;6.502;2023-09-30T03:41:22;11.30;99.90
52555;DHT22;38455;52.710;6.502;2023-09-30T03:43:48;11.30;99.90
52555;DHT22;38455;52.710;6.502;2023-09-30T03:46:15;11.30;99.90
52555;DHT22;38455;52.710;6.502;2023-09-30T03:48:41;11.30;99.90
52555;DHT22;38455;52.710;6.502;2023-09-30T03:51:09;11.30;99.90
52555;DHT22;38455;52.710;6.502;2023-09-30T03:53:35;11.30;99.90
52555;DHT22;38455;52.710;6.502;2023-09-30T03:56:01;11.30;99.90
52555;DHT22;38455;52.710;6.502;2023-09-30T03:58:28;11.20;99.90
52555;DHT22;38455;52.710;6.502;2023-09-30T04:00:53;11.20;99.90
52555;DHT22;38455;52.710;6.502;2023-09-30T04:03:20;11.20;99.90
52555;DHT22;38455;52.710;6.502;2023-09-30T04:05:45;11.20;99.90
52555;DHT22;38455;52.710;6.502;2023-09-30T04:08:11;11.20;99.90
52555;DHT22;38455;52.710;6.502;2023-09-30T04:10:37;11.20;99.90
52555;DHT22;38455;52.710;6.502;2023-09-30T04:13:02;11.20;99.90
52555;DHT22;38455;52.710;6.502;2023-09-30T04:15:28;11.20;99.90
52555;DHT22;38455;52.710;6.502;2023-09-30T04:17:54;11.20;99.90
52555;DHT22;38455;52.710;6.502;2023-09-30T04:20:20;11.20;99.90
52555;DHT22;38455;52.710;6.502;2023-09-30T04:22:52;11.20;99.90
52555;DHT22;38455;52.710;6.502;2023-09-30T04:25:23;11.20;99.90
52555;DHT22;38455;52.710;6.502;2023-09-30T04:27:50;11.20;99.90
52555;DHT22;38455;52.710;6.502;2023-09-30T04:30:17;11.30;99.90
52555;DHT22;38455;52.710;6.502;2023-09-30T04:32:43;11.20;99.90
52555;DHT22;38455;52.710;6.502;2023-09-30T04:35:09;11.20;99.90
52555;DHT22;38455;52.710;6.502;2023-09-30T04:37:35;11.20;99.90
52555;DHT22;38455;52.710;6.502;2023-09-30T04:40:03;11.20;99.90
52555;DHT22;38455;52.710;6.502;2023-09-30T04:42:33;11.20;99.90
52555;DHT22;38455;52.710;6.502;2023-09-30T04:45:00;11.20;99.90
52555;DHT22;38455;52.710;6.502;2023-09-30T04:47:25;11.20;99.90
52555;DHT22;38455;52.710;6.502;2023-09-30T04:49:51;11.20;99.90
52555;DHT22;38455;52.710;6.502;2023-09-30T04:52:17;11.20;99.90
52555;DHT22;38455;52.710;6.502;2023-09-30T04:54:43;11.20;99.90
52555;DHT22;38455;52.710;6.502;2023-09-30T04:57:10;11.20;99.90
52555;DHT22;38455;52.710;6.502;2023-09-30T04:59:36;11.20;99.90
52555;DHT22;38455;52.710;6.502;2023-09-30T05:02:01;11.20;99.90
52555;DHT22;38455;52.710;6.502;2023-09-30T05:04:27;11.10;99.90
52555;DHT22;38455;52.710;6.502;2023-09-30T05:06:55;11.10;99.90
52555;DHT22;38455;52.710;6.502;2023-09-30T05:09:20;11.00;99.90
52555;DHT22;38455;52.710;6.502;2023-09-30T05:11:46;11.00;99.90
52555;DHT22;38455;52.710;6.502;2023-09-30T05:14:12;11.00;99.90
52555;DHT22;38455;52.710;6.502;2023-09-30T05:16:38;11.10;99.90
52555;DHT22;38455;52.710;6.502;2023-09-30T05:19:04;11.10;99.90
52555;DHT22;38455;52.710;6.502;2023-09-30T05:21:30;11.00;99.90
52555;DHT22;38455;52.710;6.502;2023-09-30T05:23:55;11.00;99.90
52555;DHT22;38455;52.710;6.502;2023-09-30T05:26:22;10.90;99.90
52555;DHT22;38455;52.710;6.502;2023-09-30T05:28:47;10.90;99.90
52555;DHT22;38455;52.710;6.502;2023-09-30T05:31:13;10.80;99.90
52555;DHT22;38455;52.710;6.502;2023-09-30T05:33:39;10.80;99.90
52555;DHT22;38455;52.710;6.502;2023-09-30T05:36:04;10.80;99.90
52555;DHT22;38455;52.710;6.502;2023-09-30T05:38:30;10.80;99.90
52555;DHT22;38455;52.710;6.502;2023-09-30T05:40:59;10.70;99.90
52555;DHT22;38455;52.710;6.502;2023-09-30T05:43:25;10.70;99.90
52555;DHT22;38455;52.710;6.502;2023-09-30T05:45:52;10.70;99.90
52555;DHT22;38455;52.710;6.502;2023-09-30T05:48:21;10.70;99.90
52555;DHT22;38455;52.710;6.502;2023-09-30T05:50:47;10.70;99.90
52555;DHT22;38455;52.710;6.502;2023-09-30T05:53:13;10.70;99.90
52555;DHT22;38455;52.710;6.502;2023-09-30T05:55:39;10.80;99.90
52555;DHT22;38455;52.710;6.502;2023-09-30T05:58:09;10.80;99.90
52555;DHT22;38455;52.710;6.502;2023-09-30T06:00:35;10.90;99.90
52555;DHT22;38455;52.710;6.502;2023-09-30T06:03:01;10.90;99.90
52555;DHT22;38455;52.710;6.502;2023-09-30T06:05:27;11.00;99.90
52555;DHT22;38455;52.710;6.502;2023-09-30T06:07:55;11.00;99.90
52555;DHT22;38455;52.710;6.502;2023-09-30T06:10:21;11.00;99.90
52555;DHT22;38455;52.710;6.502;2023-09-30T06:12:48;11.00;99.90
52555;DHT22;38455;52.710;6.502;2023-09-30T06:15:15;11.10;99.90
52555;DHT22;38455;52.710;6.502;2023-09-30T06:17:41;11.20;99.90
52555;DHT22;38455;52.710;6.502;2023-09-30T06:20:08;11.30;99.90
52555;DHT22;38455;52.710;6.502;2023-09-30T06:22:44;11.30;99.90
52555;DHT22;38455;52.710;6.502;2023-09-30T06:25:12;11.40;99.90
52555;DHT22;38455;52.710;6.502;2023-09-30T06:27:38;11.40;99.90
52555;DHT22;38455;52.710;6.502;2023-09-30T06:30:04;11.50;99.90
52555;DHT22;38455;52.710;6.502;2023-09-30T06:32:30;11.60;99.90
52555;DHT22;38455;52.710;6.502;2023-09-30T06:34:56;11.80;99.90
52555;DHT22;38455;52.710;6.502;2023-09-30T06:37:22;12.00;99.90
52555;DHT22;38455;52.710;6.502;2023-09-30T06:39:48;12.10;99.90
52555;DHT22;38455;52.710;6.502;2023-09-30T06:42:14;12.20;99.90
52555;DHT22;38455;52.710;6.502;2023-09-30T06:44:39;12.30;99.90
52555;DHT22;38455;52.710;6.502;2023-09-30T06:47:05;12.40;99.90
52555;DHT22;38455;52.710;6.502;2023-09-30T06:49:34;12.50;99.90
52555;DHT22;38455;52.710;6.502;2023-09-30T06:51:59;12.60;99.90
52555;DHT22;38455;52.710;6.502;2023-09-30T06:54:25;12.70;99.90
52555;DHT22;38455;52.710;6.502;2023-09-30T06:56:51;12.80;99.90
52555;DHT22;38455;52.710;6.502;2023-09-30T06:59:16;13.00;99.90
52555;DHT22;38455;52.710;6.502;2023-09-30T07:01:42;13.20;99.90
52555;DHT22;38455;52.710;6.502;2023-09-30T07:04:09;13.80;99.90
52555;DHT22;38455;52.710;6.502;2023-09-30T07:06:37;14.70;99.90
52555;DHT22;38455;52.710;6.502;2023-09-30T07:09:02;15.70;99.90
52555;DHT22;38455;52.710;6.502;2023-09-30T07:11:30;16.60;99.90
52555;DHT22;38455;52.710;6.502;2023-09-30T07:13:59;17.40;99.90
52555;DHT22;38455;52.710;6.502;2023-09-30T07:16:26;18.30;99.90
52555;DHT22;38455;52.710;6.502;2023-09-30T07:18:51;19.00;99.90
52555;DHT22;38455;52.710;6.502;2023-09-30T07:21:17;19.50;99.90
52555;DHT22;38455;52.710;6.502;2023-09-30T07:23:43;19.40;99.90
52555;DHT22;38455;52.710;6.502;2023-09-30T07:26:08;19.40;99.90
52555;DHT22;38455;52.710;6.502;2023-09-30T07:28:34;19.70;99.90
52555;DHT22;38455;52.710;6.502;2023-09-30T07:31:00;20.10;99.90
52555;DHT22;38455;52.710;6.502;2023-09-30T07:33:26;20.70;99.90
52555;DHT22;38455;52.710;6.502;2023-09-30T07:35:52;20.70;99.90
52555;DHT22;38455;52.710;6.502;2023-09-30T07:38:17;20.50;99.90
52555;DHT22;38455;52.710;6.502;2023-09-30T07:40:43;20.90;99.90
52555;DHT22;38455;52.710;6.502;2023-09-30T07:43:09;21.00;99.90
52555;DHT22;38455;52.710;6.502;2023-09-30T07:45:35;21.10;99.90
52555;DHT22;38455;52.710;6.502;2023-09-30T07:48:01;21.50;99.90
52555;DHT22;38455;52.710;6.502;2023-09-30T07:50:30;21.10;99.90
52555;DHT22;38455;52.710;6.502;2023-09-30T07:52:56;20.70;99.90
52555;DHT22;38455;52.710;6.502;2023-09-30T07:55:21;20.00;99.90
52555;DHT22;38455;52.710;6.502;2023-09-30T07:57:48;19.40;99.90
52555;DHT22;38455;52.710;6.502;2023-09-30T08:00:14;18.90;99.90
52555;DHT22;38455;52.710;6.502;2023-09-30T08:02:45;18.90;99.90
52555;DHT22;38455;52.710;6.502;2023-09-30T08:05:11;18.70;99.90
52555;DHT22;38455;52.710;6.502;2023-09-30T08:07:37;18.20;99.90
52555;DHT22;38455;52.710;6.502;2023-09-30T08:10:03;17.90;99.90
52555;DHT22;38455;52.710;6.502;2023-09-30T08:12:33;17.60;99.90
52555;DHT22;38455;52.710;6.502;2023-09-30T08:14:59;17.30;99.90
52555;DHT22;38455;52.710;6.502;2023-09-30T08:17:24;17.10;99.90
52555;DHT22;38455;52.710;6.502;2023-09-30T08:19:50;16.90;99.90
52555;DHT22;38455;52.710;6.502;2023-09-30T08:22:17;16.80;99.90
52555;DHT22;38455;52.710;6.502;2023-09-30T08:24:42;16.70;99.90
52555;DHT22;38455;52.710;6.502;2023-09-30T08:27:09;16.70;99.90
52555;DHT22;38455;52.710;6.502;2023-09-30T08:29:35;16.90;99.90
52555;DHT22;38455;52.710;6.502;2023-09-30T08:32:02;17.30;99.90
52555;DHT22;38455;52.710;6.502;2023-09-30T08:34:29;18.60;99.90
52555;DHT22;38455;52.710;6.502;2023-09-30T08:36:54;19.90;99.90
52555;DHT22;38455;52.710;6.502;2023-09-30T08:39:20;21.30;99.90
52555;DHT22;38455;52.710;6.502;2023-09-30T08:41:46;22.00;99.90
52555;DHT22;38455;52.710;6.502;2023-09-30T08:44:11;21.90;99.90
52555;DHT22;38455;52.710;6.502;2023-09-30T08:46:38;21.30;99.90
52555;DHT22;38455;52.710;6.502;2023-09-30T08:49:05;20.80;99.90
52555;DHT22;38455;52.710;6.502;2023-09-30T08:51:35;21.00;99.90
52555;DHT22;38455;52.710;6.502;2023-09-30T08:54:01;21.50;99.90
52555;DHT22;38455;52.710;6.502;2023-09-30T08:56:30;21.30;99.90
52555;DHT22;38455;52.710;6.502;2023-09-30T08:58:59;21.20;99.90
52555;DHT22;38455;52.710;6.502;2023-09-30T09:01:29;22.00;99.90
52555;DHT22;38455;52.710;6.502;2023-09-30T09:03:56;23.20;99.90
52555;DHT22;38455;52.710;6.502;2023-09-30T09:06:23;24.20;99.90
52555;DHT22;38455;52.710;6.502;2023-09-30T09:08:49;25.00;99.90
52555;DHT22;38455;52.710;6.502;2023-09-30T09:11:15;25.50;99.90
52555;DHT22;38455;52.710;6.502;2023-09-30T09:13:52;26.30;99.90
52555;DHT22;38455;52.710;6.502;2023-09-30T09:16:22;26.80;99.90
52555;DHT22;38455;52.710;6.502;2023-09-30T09:18:49;27.00;99.90
52555;DHT22;38455;52.710;6.502;2023-09-30T09:21:21;27.40;99.90
52555;DHT22;38455;52.710;6.502;2023-09-30T09:23:49;27.80;99.60
52555;DHT22;38455;52.710;6.502;2023-09-30T09:26:28;27.90;99.40
52555;DHT22;38455;52.710;6.502;2023-09-30T09:28:59;28.20;98.60
52555;DHT22;38455;52.710;6.502;2023-09-30T09:31:33;28.40;97.90
52555;DHT22;38455;52.710;6.502;2023-09-30T09:34:13;28.60;97.40
52555;DHT22;38455;52.710;6.502;2023-09-30T09:36:44;28.90;96.80
52555;DHT22;38455;52.710;6.502;2023-09-30T09:39:10;29.10;96.30
52555;DHT22;38455;52.710;6.502;2023-09-30T09:41:50;29.60;96.20
52555;DHT22;38455;52.710;6.502;2023-09-30T09:44:17;29.80;95.10
52555;DHT22;38455;52.710;6.502;2023-09-30T09:46:46;30.00;95.30
52555;DHT22;38455;52.710;6.502;2023-09-30T09:49:13;30.00;94.50
52555;DHT22;38455;52.710;6.502;2023-09-30T09:51:40;30.10;94.30
52555;DHT22;38455;52.710;6.502;2023-09-30T09:54:07;30.20;93.60
52555;DHT22;38455;52.710;6.502;2023-09-30T09:56:34;30.20;93.30
52555;DHT22;38455;52.710;6.502;2023-09-30T09:59:03;30.40;93.30
52555;DHT22;38455;52.710;6.502;2023-09-30T10:01:30;30.30;92.80
52555;DHT22;38455;52.710;6.502;2023-09-30T10:03:57;30.50;92.60
52555;DHT22;38455;52.710;6.502;2023-09-30T10:06:24;30.30;92.50
52555;DHT22;38455;52.710;6.502;2023-09-30T10:08:51;30.30;92.10
52555;DHT22;38455;52.710;6.502;2023-09-30T10:11:18;30.60;91.90
52555;DHT22;38455;52.710;6.502;2023-09-30T10:13:57;30.70;91.50
52555;DHT22;38455;52.710;6.502;2023-09-30T10:16:49;31.00;91.20
52555;DHT22;38455;52.710;6.502;2023-09-30T10:19:22;31.00;90.40
52555;DHT22;38455;52.710;6.502;2023-09-30T10:24:43;31.10;90.20
52555;DHT22;38455;52.710;6.502;2023-09-30T10:27:27;31.30;90.60
52555;DHT22;38455;52.710;6.502;2023-09-30T10:29:58;31.40;90.40
52555;DHT22;38455;52.710;6.502;2023-09-30T10:40:51;31.70;88.50
52555;DHT22;38455;52.710;6.502;2023-09-30T10:45:59;31.20;86.30
52555;DHT22;38455;52.710;6.502;2023-09-30T10:50:55;30.90;86.60
52555;DHT22;38455;52.710;6.502;2023-09-30T10:53:22;30.70;86.60
52555;DHT22;38455;52.710;6.502;2023-09-30T10:55:55;30.60;86.70
52555;DHT22;38455;52.710;6.502;2023-09-30T10:58:21;31.00;86.90
52555;DHT22;38455;52.710;6.502;2023-09-30T11:00:54;31.40;85.70
52555;DHT22;38455;52.710;6.502;2023-09-30T11:03:23;31.90;84.50
52555;DHT22;38455;52.710;6.502;2023-09-30T11:05:50;32.00;83.30
52555;DHT22;38455;52.710;6.502;2023-09-30T11:08:21;31.90;83.90
52555;DHT22;38455;52.710;6.502;2023-09-30T11:10:50;31.40;82.00
52555;DHT22;38455;52.710;6.502;2023-09-30T11:13:20;30.30;81.60
52555;DHT22;38455;52.710;6.502;2023-09-30T11:15:46;29.80;81.80
52555;DHT22;38455;52.710;6.502;2023-09-30T11:18:16;29.60;82.60
52555;DHT22;38455;52.710;6.502;2023-09-30T11:20:43;29.90;81.10
52555;DHT22;38455;52.710;6.502;2023-09-30T11:23:10;29.90;81.90
52555;DHT22;38455;52.710;6.502;2023-09-30T11:25:37;29.80;81.90
52555;DHT22;38455;52.710;6.502;2023-09-30T11:31:13;28.80;81.40
52555;DHT22;38455;52.710;6.502;2023-09-30T11:33:53;28.90;83.30
52555;DHT22;38455;52.710;6.502;2023-09-30T11:36:21;29.20;82.50
52555;DHT22;38455;52.710;6.502;2023-09-30T11:38:49;29.20;83.20
52555;DHT22;38455;52.710;6.502;2023-09-30T11:41:16;28.90;82.20
52555;DHT22;38455;52.710;6.502;2023-09-30T11:46:30;27.90;82.80
52555;DHT22;38455;52.710;6.502;2023-09-30T11:49:05;27.00;84.20
52555;DHT22;38455;52.710;6.502;2023-09-30T11:51:42;26.00;84.70
52555;DHT22;38455;52.710;6.502;2023-09-30T11:54:11;25.40;85.90
52555;DHT22;38455;52.710;6.502;2023-09-30T11:56:37;24.90;87.70
52555;DHT22;38455;52.710;6.502;2023-09-30T11:59:03;24.40;88.80
52555;DHT22;38455;52.710;6.502;2023-09-30T12:01:30;24.10;89.90
52555;DHT22;38455;52.710;6.502;2023-09-30T12:03:58;24.00;90.70
52555;DHT22;38455;52.710;6.502;2023-09-30T12:06:25;23.70;90.90
52555;DHT22;38455;52.710;6.502;2023-09-30T12:08:51;23.50;90.90
52555;DHT22;38455;52.710;6.502;2023-09-30T12:11:18;23.40;91.30
52555;DHT22;38455;52.710;6.502;2023-09-30T12:13:44;23.80;91.40
52555;DHT22;38455;52.710;6.502;2023-09-30T12:16:10;24.40;91.00
52555;DHT22;38455;52.710;6.502;2023-09-30T12:18:38;25.10;90.50
52555;DHT22;38455;52.710;6.502;2023-09-30T12:21:04;25.50;89.50
52555;DHT22;38455;52.710;6.502;2023-09-30T12:23:32;25.50;88.80
52555;DHT22;38455;52.710;6.502;2023-09-30T12:25:57;24.90;89.10
52555;DHT22;38455;52.710;6.502;2023-09-30T12:28:23;24.30;89.30
52555;DHT22;38455;52.710;6.502;2023-09-30T12:30:49;24.00;90.00
52555;DHT22;38455;52.710;6.502;2023-09-30T12:33:14;23.80;90.90
52555;DHT22;38455;52.710;6.502;2023-09-30T12:35:40;23.90;90.50
52555;DHT22;38455;52.710;6.502;2023-09-30T12:38:05;23.90;90.90
52555;DHT22;38455;52.710;6.502;2023-09-30T12:40:31;23.90;91.10
52555;DHT22;38455;52.710;6.502;2023-09-30T12:42:57;23.90;91.30
52555;DHT22;38455;52.710;6.502;2023-09-30T12:45:23;23.80;91.00
52555;DHT22;38455;52.710;6.502;2023-09-30T12:47:48;23.80;90.80
52555;DHT22;38455;52.710;6.502;2023-09-30T12:50:17;23.60;91.00
52555;DHT22;38455;52.710;6.502;2023-09-30T12:52:43;23.50;91.10
52555;DHT22;38455;52.710;6.502;2023-09-30T12:55:09;23.50;91.10
52555;DHT22;38455;52.710;6.502;2023-09-30T12:57:36;23.50;91.40
52555;DHT22;38455;52.710;6.502;2023-09-30T13:00:02;23.50;90.90
52555;DHT22;38455;52.710;6.502;2023-09-30T13:02:28;23.50;91.20
52555;DHT22;38455;52.710;6.502;2023-09-30T13:04:54;23.40;91.30
52555;DHT22;38455;52.710;6.502;2023-09-30T13:07:20;23.40;91.60
52555;DHT22;38455;52.710;6.502;2023-09-30T13:09:45;23.40;92.00
52555;DHT22;38455;52.710;6.502;2023-09-30T13:12:12;23.30;91.60
52555;DHT22;38455;52.710;6.502;2023-09-30T13:14:39;23.20;91.70
52555;DHT22;38455;52.710;6.502;2023-09-30T13:17:04;23.10;91.90
52555;DHT22;38455;52.710;6.502;2023-09-30T13:19:30;23.00;92.20
52555;DHT22;38455;52.710;6.502;2023-09-30T13:21:58;22.80;92.80
52555;DHT22;38455;52.710;6.502;2023-09-30T13:24:24;22.70;93.20
52555;DHT22;38455;52.710;6.502;2023-09-30T13:26:49;22.60;93.40
52555;DHT22;38455;52.710;6.502;2023-09-30T13:29:18;22.60;93.70
52555;DHT22;38455;52.710;6.502;2023-09-30T13:31:44;22.70;93.90
52555;DHT22;38455;52.710;6.502;2023-09-30T13:34:10;22.80;93.90
52555;DHT22;38455;52.710;6.502;2023-09-30T13:36:38;22.90;93.80
52555;DHT22;38455;52.710;6.502;2023-09-30T13:39:03;23.10;93.70
52555;DHT22;38455;52.710;6.502;2023-09-30T13:41:35;23.20;93.50
52555;DHT22;38455;52.710;6.502;2023-09-30T13:44:01;23.30;93.40
52555;DHT22;38455;52.710;6.502;2023-09-30T13:46:27;23.50;93.40
52555;DHT22;38455;52.710;6.502;2023-09-30T13:48:53;23.30;93.10
52555;DHT22;38455;52.710;6.502;2023-09-30T13:51:19;23.20;93.40
52555;DHT22;38455;52.710;6.502;2023-09-30T13:53:45;23.00;93.60
52555;DHT22;38455;52.710;6.502;2023-09-30T13:56:10;22.80;94.40
52555;DHT22;38455;52.710;6.502;2023-09-30T13:58:37;22.70;94.80
52555;DHT22;38455;52.710;6.502;2023-09-30T14:01:03;22.60;94.70
52555;DHT22;38455;52.710;6.502;2023-09-30T14:03:29;22.50;94.50
52555;DHT22;38455;52.710;6.502;2023-09-30T14:05:55;22.40;94.30
52555;DHT22;38455;52.710;6.502;2023-09-30T14:08:21;22.50;94.00
52555;DHT22;38455;52.710;6.502;2023-09-30T14:10:47;22.50;94.10
52555;DHT22;38455;52.710;6.502;2023-09-30T14:13:13;22.60;94.10
52555;DHT22;38455;52.710;6.502;2023-09-30T14:15:40;22.50;94.20
52555;DHT22;38455;52.710;6.502;2023-09-30T14:18:06;22.40;94.30
52555;DHT22;38455;52.710;6.502;2023-09-30T14:20:32;22.20;94.50
52555;DHT22;38455;52.710;6.502;2023-09-30T14:22:59;22.00;94.90
52555;DHT22;38455;52.710;6.502;2023-09-30T14:25:25;21.90;95.50
52555;DHT22;38455;52.710;6.502;2023-09-30T14:27:52;21.80;95.40
52555;DHT22;38455;52.710;6.502;2023-09-30T14:30:17;21.70;95.60
52555;DHT22;38455;52.710;6.502;2023-09-30T14:32:45;21.70;95.90
52555;DHT22;38455;52.710;6.502;2023-09-30T14:35:10;21.60;96.00
52555;DHT22;38455;52.710;6.502;2023-09-30T14:37:36;21.60;96.20
52555;DHT22;38455;52.710;6.502;2023-09-30T14:40:02;21.50;96.60
52555;DHT22;38455;52.710;6.502;2023-09-30T14:42:36;21.40;96.40
52555;DHT22;38455;52.710;6.502;2023-09-30T14:45:02;21.30;97.00
52555;DHT22;38455;52.710;6.502;2023-09-30T14:47:28;21.30;96.80
52555;DHT22;38455;52.710;6.502;2023-09-30T14:49:54;21.20;97.10
52555;DHT22;38455;52.710;6.502;2023-09-30T14:52:19;21.20;97.60
52555;DHT22;38455;52.710;6.502;2023-09-30T14:54:45;21.10;98.70
52555;DHT22;38455;52.710;6.502;2023-09-30T14:57:11;21.00;98.90
52555;DHT22;38455;52.710;6.502;2023-09-30T14:59:39;20.90;99.10
52555;DHT22;38455;52.710;6.502;2023-09-30T15:02:06;20.90;99.90
52555;DHT22;38455;52.710;6.502;2023-09-30T15:04:34;20.80;99.40
52555;DHT22;38455;52.710;6.502;2023-09-30T15:07:00;20.80;99.70
52555;DHT22;38455;52.710;6.502;2023-09-30T15:09:26;20.80;99.90
52555;DHT22;38455;52.710;6.502;2023-09-30T15:11:52;20.70;99.90
52555;DHT22;38455;52.710;6.502;2023-09-30T15:14:19;20.70;99.90
52555;DHT22;38455;52.710;6.502;2023-09-30T15:16:45;20.70;99.90
52555;DHT22;38455;52.710;6.502;2023-09-30T15:19:10;20.80;99.90
52555;DHT22;38455;52.710;6.502;2023-09-30T15:21:36;20.80;99.90
52555;DHT22;38455;52.710;6.502;2023-09-30T15:24:03;20.80;99.90
52555;DHT22;38455;52.710;6.502;2023-09-30T15:26:30;20.80;99.90
52555;DHT22;38455;52.710;6.502;2023-09-30T15:28:57;20.80;99.90
52555;DHT22;38455;52.710;6.502;2023-09-30T15:31:27;20.80;99.90
52555;DHT22;38455;52.710;6.502;2023-09-30T15:33:55;20.70;99.90
52555;DHT22;38455;52.710;6.502;2023-09-30T15:36:21;20.70;99.90
52555;DHT22;38455;52.710;6.502;2023-09-30T15:38:47;20.60;99.90
52555;DHT22;38455;52.710;6.502;2023-09-30T15:41:15;20.60;99.90
52555;DHT22;38455;52.710;6.502;2023-09-30T15:43:41;20.60;99.90
52555;DHT22;38455;52.710;6.502;2023-09-30T15:46:10;20.60;99.90
52555;DHT22;38455;52.710;6.502;2023-09-30T15:48:36;20.60;99.90
52555;DHT22;38455;52.710;6.502;2023-09-30T15:51:01;20.60;99.90